createdAt,value
2024-05-09T00:00:18.152Z,22.15
2024-05-09T00:00:53.930Z,23.88
2024-05-09T00:01:25.719Z,23.48
2024-05-09T00:01:57.531Z,23.52
2024-05-09T00:02:29.829Z,23.20
2024-05-09T00:03:01.703Z,22.80
2024-05-09T00:03:33.592Z,21.17
2024-05-09T00:04:05.575Z,22.70
2024-05-09T00:04:37.544Z,22.42
2024-05-09T00:05:12.279Z,23.92
2024-05-09T00:05:44.428Z,23.52
2024-05-09T00:06:16.466Z,22.73
2024-05-09T00:06:48.279Z,24.52
2024-05-09T00:07:20.502Z,24.30
2024-05-09T00:07:52.283Z,28.23
2024-05-09T00:08:24.244Z,23.30
2024-05-09T00:08:56.081Z,24.92
2024-05-09T00:09:27.827Z,23.83
2024-05-09T00:09:59.677Z,26.10
2024-05-09T00:10:36.501Z,24.38
2024-05-09T00:11:10.545Z,22.65
2024-05-09T00:11:42.457Z,25.92
2024-05-09T00:12:14.394Z,25.33
2024-05-09T00:12:46.159Z,21.27
2024-05-09T00:13:17.905Z,22.20
2024-05-09T00:13:49.686Z,23.20
2024-05-09T00:14:21.431Z,23.80
2024-05-09T00:14:53.223Z,23.23
2024-05-09T00:15:24.946Z,25.15
2024-05-09T00:15:56.740Z,24.73
2024-05-09T00:16:28.452Z,23.70
2024-05-09T00:17:00.238Z,21.55
2024-05-09T00:17:32.112Z,23.05
2024-05-09T00:18:05.000Z,22.80
2024-05-09T00:18:37.527Z,22.33
2024-05-09T00:19:09.537Z,22.70
2024-05-09T00:19:43.575Z,20.65
2024-05-09T00:20:20.509Z,21.58
2024-05-09T00:20:56.510Z,21.55
2024-05-09T00:21:28.275Z,23.38
2024-05-09T00:21:59.995Z,24.23
2024-05-09T00:22:32.141Z,23.92
2024-05-09T00:23:04.434Z,25.63
2024-05-09T00:23:36.313Z,24.88
2024-05-09T00:24:08.007Z,25.05
2024-05-09T00:24:39.722Z,23.45
2024-05-09T00:25:11.403Z,21.48
2024-05-09T00:25:43.800Z,24.40
2024-05-09T00:26:17.848Z,23.42
2024-05-09T00:26:49.661Z,25.42
2024-05-09T00:27:21.465Z,23.85
2024-05-09T00:27:53.167Z,24.67
2024-05-09T00:28:25.879Z,25.20
2024-05-09T00:28:57.668Z,22.20
2024-05-09T00:29:29.478Z,23.38
2024-05-09T00:30:01.281Z,25.27
2024-05-09T00:30:35.860Z,26.25
2024-05-09T00:31:08.818Z,26.13
2024-05-09T00:31:40.538Z,30.45
2024-05-09T00:32:12.385Z,23.15
2024-05-09T00:32:44.207Z,22.98
2024-05-09T00:33:16.397Z,23.77
2024-05-09T00:33:48.475Z,22.73
2024-05-09T00:34:20.368Z,26.83
2024-05-09T00:34:52.220Z,24.35
2024-05-09T00:35:24.059Z,23.98
2024-05-09T00:35:55.872Z,25.33
2024-05-09T00:36:27.594Z,23.98
2024-05-09T00:36:59.336Z,24.75
2024-05-09T00:37:31.059Z,22.65
2024-05-09T00:38:02.980Z,23.42
2024-05-09T00:38:34.966Z,25.98
2024-05-09T00:39:06.897Z,25.45
2024-05-09T00:39:38.649Z,23.92
2024-05-09T00:40:18.297Z,24.83
2024-05-09T00:40:54.618Z,23.15
2024-05-09T00:41:26.359Z,25.25
2024-05-09T00:41:59.632Z,28.92
2024-05-09T00:42:31.407Z,27.23
2024-05-09T00:43:03.229Z,29.55
2024-05-09T00:43:34.944Z,24.88
2024-05-09T00:44:06.761Z,25.30
2024-05-09T00:44:39.105Z,26.33
2024-05-09T00:45:11.015Z,31.80
2024-05-09T00:45:43.630Z,24.63
2024-05-09T00:46:15.691Z,23.45
2024-05-09T00:46:47.495Z,24.27
2024-05-09T00:47:19.592Z,23.95
2024-05-09T00:47:51.817Z,29.75
2024-05-09T00:48:23.848Z,24.15
2024-05-09T00:48:55.990Z,23.65
2024-05-09T00:49:28.526Z,24.20
2024-05-09T00:50:01.494Z,22.65
2024-05-09T00:50:36.943Z,23.30
2024-05-09T00:51:09.806Z,25.45
2024-05-09T00:51:42.211Z,26.10
2024-05-09T00:52:13.994Z,24.85
2024-05-09T00:52:46.492Z,24.33
2024-05-09T00:53:19.137Z,21.48
2024-05-09T00:53:51.065Z,25.23
2024-05-09T00:54:23.221Z,24.50
2024-05-09T00:54:56.812Z,26.23
2024-05-09T00:55:28.706Z,26.80
2024-05-09T00:56:01.181Z,26.58
2024-05-09T00:56:35.676Z,23.00
2024-05-09T00:57:07.450Z,25.25
2024-05-09T00:57:39.915Z,24.80
2024-05-09T00:58:13.799Z,25.45
2024-05-09T00:58:45.813Z,22.20
2024-05-09T00:59:18.053Z,23.15
2024-05-09T00:59:50.510Z,22.35
2024-05-09T01:00:30.720Z,22.70
2024-05-09T01:01:08.216Z,23.33
2024-05-09T01:01:40.909Z,24.63
2024-05-09T01:02:13.010Z,25.02
2024-05-09T01:02:45.123Z,23.33
2024-05-09T01:03:17.886Z,24.45
2024-05-09T01:03:51.421Z,24.15
2024-05-09T01:04:23.355Z,23.60
2024-05-09T01:04:55.693Z,24.65
2024-05-09T01:05:27.757Z,22.42
2024-05-09T01:05:59.659Z,22.83
2024-05-09T01:06:31.626Z,23.80
2024-05-09T01:07:03.691Z,24.25
2024-05-09T01:07:35.547Z,22.70
2024-05-09T01:08:07.715Z,25.90
2024-05-09T01:08:39.671Z,24.58
2024-05-09T01:09:11.465Z,23.58
2024-05-09T01:09:43.306Z,23.90
2024-05-09T01:10:21.174Z,25.38
2024-05-09T01:10:59.459Z,24.02
2024-05-09T01:11:38.942Z,24.05
2024-05-09T01:12:10.988Z,23.45
2024-05-09T01:12:42.871Z,24.13
2024-05-09T01:13:14.586Z,22.33
2024-05-09T01:13:46.508Z,23.60
2024-05-09T01:14:18.324Z,24.00
2024-05-09T01:14:50.520Z,22.55
2024-05-09T01:15:22.279Z,23.65
2024-05-09T01:15:54.131Z,24.20
2024-05-09T01:16:25.889Z,23.42
2024-05-09T01:16:57.901Z,22.35
2024-05-09T01:17:31.094Z,25.10
2024-05-09T01:18:13.288Z,20.08
2024-05-09T01:18:45.802Z,22.48
2024-05-09T01:19:23.737Z,22.52
2024-05-09T01:19:55.594Z,21.73
2024-05-09T01:20:36.969Z,21.75
2024-05-09T01:21:13.874Z,21.15
2024-05-09T01:21:45.799Z,22.17
2024-05-09T01:22:17.544Z,20.40
2024-05-09T01:22:49.325Z,19.30
2024-05-09T01:23:21.171Z,17.67
2024-05-09T01:23:53.053Z,17.02
2024-05-09T01:24:24.843Z,15.73
2024-05-09T01:24:56.593Z,15.10
2024-05-09T01:25:28.284Z,14.27
2024-05-09T01:26:00.287Z,16.23
2024-05-09T01:26:32.122Z,15.30
2024-05-09T01:27:04.121Z,16.33
2024-05-09T01:27:35.925Z,16.13
2024-05-09T01:28:07.757Z,14.52
2024-05-09T01:28:39.529Z,15.25
2024-05-09T01:29:11.349Z,16.65
2024-05-09T01:29:43.092Z,16.35
2024-05-09T01:30:20.803Z,16.67
2024-05-09T01:30:53.785Z,16.85
2024-05-09T01:31:25.476Z,18.17
2024-05-09T01:31:59.320Z,18.20
2024-05-09T01:32:31.232Z,19.90
2024-05-09T01:33:03.704Z,19.20
2024-05-09T01:33:35.886Z,20.75
2024-05-09T01:34:07.744Z,21.48
2024-05-09T01:34:39.477Z,21.02
2024-05-09T01:35:11.344Z,19.38
2024-05-09T01:35:43.431Z,19.25
2024-05-09T01:36:15.316Z,16.70
2024-05-09T01:36:47.017Z,16.63
2024-05-09T01:37:18.741Z,19.02
2024-05-09T01:37:50.971Z,18.40
2024-05-09T01:38:22.824Z,18.17
2024-05-09T01:38:54.584Z,18.98
2024-05-09T01:39:26.279Z,19.05
2024-05-09T01:39:57.966Z,18.58
2024-05-09T01:40:37.131Z,19.05
2024-05-09T01:41:11.472Z,20.95
2024-05-09T01:41:43.273Z,20.73
2024-05-09T01:42:16.634Z,19.92
2024-05-09T01:42:48.368Z,20.42
2024-05-09T01:43:20.127Z,21.83
2024-05-09T01:43:52.099Z,20.55
2024-05-09T01:44:23.985Z,21.13
2024-05-09T01:44:55.885Z,20.75
2024-05-09T01:45:27.582Z,22.05
2024-05-09T01:45:59.394Z,21.00
2024-05-09T01:46:31.089Z,20.38
2024-05-09T01:47:02.948Z,23.77
2024-05-09T01:47:35.192Z,22.30
2024-05-09T01:48:08.221Z,23.30
2024-05-09T01:48:40.296Z,21.92
2024-05-09T01:49:12.296Z,23.48
2024-05-09T01:49:44.326Z,21.58
2024-05-09T01:50:16.693Z,19.45
2024-05-09T01:50:48.552Z,21.77
2024-05-09T01:51:20.341Z,21.20
2024-05-09T01:51:52.116Z,21.55
2024-05-09T01:52:23.946Z,19.90
2024-05-09T01:52:55.764Z,20.98
2024-05-09T01:53:27.493Z,20.55
2024-05-09T01:53:59.261Z,20.23
2024-05-09T01:54:30.952Z,21.05
2024-05-09T01:55:05.836Z,20.98
2024-05-09T01:55:38.582Z,22.17
2024-05-09T01:56:10.792Z,19.58
2024-05-09T01:56:42.617Z,21.60
2024-05-09T01:57:14.401Z,21.20
2024-05-09T01:57:46.110Z,20.38
2024-05-09T01:58:17.964Z,21.83
2024-05-09T01:58:50.415Z,39.40
2024-05-09T01:59:22.392Z,23.02
2024-05-09T01:59:54.439Z,20.30
2024-05-09T02:00:36.940Z,20.63
2024-05-09T02:01:12.520Z,22.75
2024-05-09T02:01:56.308Z,22.08
2024-05-09T02:02:29.592Z,21.50
2024-05-09T02:03:01.753Z,20.45
2024-05-09T02:03:33.937Z,21.05
2024-05-09T02:04:06.379Z,21.83
2024-05-09T02:04:38.741Z,22.58
2024-05-09T02:05:10.786Z,21.52
2024-05-09T02:05:43.155Z,21.67
2024-05-09T02:06:15.054Z,21.77
2024-05-09T02:06:46.880Z,18.73
2024-05-09T02:07:18.696Z,21.42
2024-05-09T02:07:50.503Z,20.75
2024-05-09T02:08:22.475Z,22.65
2024-05-09T02:08:54.341Z,23.05
2024-05-09T02:09:26.162Z,21.92
2024-05-09T02:09:57.849Z,21.13
2024-05-09T02:10:32.719Z,21.90
2024-05-09T02:11:05.317Z,21.42
2024-05-09T02:11:42.549Z,22.40
2024-05-09T02:12:14.492Z,23.10
2024-05-09T02:12:46.422Z,21.10
2024-05-09T02:13:18.299Z,22.77
2024-05-09T02:13:50.192Z,21.23
2024-05-09T02:14:22.009Z,22.02
2024-05-09T02:14:53.755Z,22.75
2024-05-09T02:15:25.520Z,21.92
2024-05-09T02:15:57.290Z,20.73
2024-05-09T02:16:29.127Z,20.40
2024-05-09T02:17:00.856Z,16.67
2024-05-09T02:17:32.922Z,17.52
2024-05-09T02:18:05.499Z,20.25
2024-05-09T02:18:37.384Z,19.13
2024-05-09T02:19:09.362Z,15.77
2024-05-09T02:19:41.112Z,23.77
2024-05-09T02:20:18.912Z,19.33
2024-05-09T02:20:58.972Z,16.85
2024-05-09T02:21:34.440Z,15.20
2024-05-09T02:22:06.191Z,14.25
2024-05-09T02:22:37.978Z,14.88
2024-05-09T02:23:09.962Z,15.88
2024-05-09T02:23:41.904Z,14.45
2024-05-09T02:24:13.663Z,15.55
2024-05-09T02:24:45.496Z,16.27
2024-05-09T02:25:20.633Z,15.23
2024-05-09T02:25:52.427Z,14.80
2024-05-09T02:26:24.261Z,15.75
2024-05-09T02:26:56.036Z,16.52
2024-05-09T02:27:27.723Z,14.77
2024-05-09T02:27:59.666Z,14.55
2024-05-09T02:28:31.456Z,16.83
2024-05-09T02:29:03.244Z,15.48
2024-05-09T02:29:35.043Z,14.45
2024-05-09T02:30:18.458Z,14.68
2024-05-09T02:30:57.587Z,19.60
2024-05-09T02:31:29.365Z,17.83
2024-05-09T02:32:01.231Z,16.42
2024-05-09T02:32:33.237Z,17.67
2024-05-09T02:33:05.688Z,19.60
2024-05-09T02:33:38.100Z,16.88
2024-05-09T02:34:10.102Z,19.05
2024-05-09T02:34:41.905Z,18.65
2024-05-09T02:35:13.877Z,19.15
2024-05-09T02:35:45.750Z,17.65
2024-05-09T02:36:17.885Z,17.95
2024-05-09T02:36:49.783Z,18.13
2024-05-09T02:37:21.474Z,18.35
2024-05-09T02:37:53.226Z,17.60
2024-05-09T02:38:24.943Z,17.77
2024-05-09T02:38:56.657Z,20.30
2024-05-09T02:39:28.376Z,21.95
2024-05-09T02:40:00.121Z,18.00
2024-05-09T02:40:37.059Z,16.70
2024-05-09T02:41:10.872Z,18.90
2024-05-09T02:41:42.639Z,19.42
2024-05-09T02:42:14.374Z,21.73
2024-05-09T02:42:47.241Z,21.67
2024-05-09T02:43:19.011Z,19.75
2024-05-09T02:43:50.729Z,20.02
2024-05-09T02:44:22.558Z,20.80
2024-05-09T02:44:54.438Z,19.98
2024-05-09T02:45:26.218Z,20.40
2024-05-09T02:45:58.001Z,23.73
2024-05-09T02:46:29.740Z,65.15
2024-05-09T02:47:01.556Z,24.15
2024-05-09T02:47:33.384Z,17.67
2024-05-09T02:48:06.094Z,16.02
2024-05-09T02:48:38.188Z,24.30
2024-05-09T02:49:10.187Z,24.05
2024-05-09T02:49:41.951Z,15.13
2024-05-09T02:50:19.293Z,15.65
2024-05-09T02:50:54.937Z,14.65
2024-05-09T02:51:26.660Z,12.07
2024-05-09T02:51:58.380Z,13.07
2024-05-09T02:52:30.134Z,11.85
2024-05-09T02:53:01.869Z,11.32
2024-05-09T02:53:33.766Z,10.88
2024-05-09T02:54:07.743Z,10.15
2024-05-09T02:54:39.442Z,9.00
2024-05-09T02:55:11.189Z,9.68
2024-05-09T02:55:43.367Z,10.50
2024-05-09T02:56:15.301Z,9.73
2024-05-09T02:56:47.210Z,10.95
2024-05-09T02:57:18.971Z,11.75
2024-05-09T02:57:50.809Z,14.15
2024-05-09T02:58:22.570Z,14.70
2024-05-09T02:58:54.344Z,15.52
2024-05-09T02:59:26.340Z,17.67
2024-05-09T02:59:58.122Z,16.48
2024-05-09T03:00:38.084Z,28.73
2024-05-09T03:01:12.796Z,45.45
2024-05-09T03:01:45.075Z,66.47
2024-05-09T03:02:16.954Z,23.23
2024-05-09T03:02:48.821Z,18.13
2024-05-09T03:03:21.112Z,16.70
2024-05-09T03:03:53.436Z,16.13
2024-05-09T03:04:25.337Z,15.40
2024-05-09T03:04:57.195Z,14.65
2024-05-09T03:05:29.148Z,17.52
2024-05-09T03:06:02.268Z,14.63
2024-05-09T03:06:34.017Z,18.40
2024-05-09T03:07:05.744Z,16.98
2024-05-09T03:07:37.626Z,14.52
2024-05-09T03:08:09.807Z,16.92
2024-05-09T03:08:45.921Z,19.58
2024-05-09T03:09:17.946Z,56.00
2024-05-09T03:09:49.699Z,19.08
2024-05-09T03:10:25.658Z,16.23
2024-05-09T03:11:00.470Z,17.15
2024-05-09T03:11:32.303Z,16.35
2024-05-09T03:12:04.691Z,16.92
2024-05-09T03:12:39.145Z,15.25
2024-05-09T03:13:15.017Z,17.58
2024-05-09T03:13:47.794Z,17.15
2024-05-09T03:14:19.655Z,17.73
2024-05-09T03:14:51.636Z,17.48
2024-05-09T03:15:23.356Z,18.55
2024-05-09T03:15:55.098Z,45.40
2024-05-09T03:16:26.897Z,16.60
2024-05-09T03:16:58.599Z,30.20
2024-05-09T03:17:30.602Z,56.92
2024-05-09T03:18:03.252Z,94.85
2024-05-09T03:18:35.183Z,127.97
2024-05-09T03:19:07.040Z,49.80
2024-05-09T03:19:38.999Z,27.67
2024-05-09T03:20:17.558Z,17.90
2024-05-09T03:20:55.348Z,18.67
2024-05-09T03:21:27.150Z,25.42
2024-05-09T03:21:58.916Z,35.45
2024-05-09T03:22:30.617Z,24.33
2024-05-09T03:23:02.855Z,16.73
2024-05-09T03:23:40.770Z,14.85
2024-05-09T03:24:12.571Z,16.85
2024-05-09T03:24:44.275Z,17.90
2024-05-09T03:25:16.021Z,24.50
2024-05-09T03:25:47.834Z,21.55
2024-05-09T03:26:19.742Z,19.40
2024-05-09T03:26:51.538Z,20.13
2024-05-09T03:27:24.912Z,19.95
2024-05-09T03:27:56.753Z,18.20
2024-05-09T03:28:28.514Z,21.02
2024-05-09T03:29:00.515Z,22.08
2024-05-09T03:29:32.366Z,19.33
2024-05-09T03:30:07.301Z,17.95
2024-05-09T03:30:42.375Z,18.25
2024-05-09T03:31:18.387Z,18.35
2024-05-09T03:31:50.189Z,18.35
2024-05-09T03:32:22.137Z,19.02
2024-05-09T03:32:54.292Z,19.35
2024-05-09T03:33:26.555Z,18.83
2024-05-09T03:33:58.630Z,23.42
2024-05-09T03:34:30.428Z,19.23
2024-05-09T03:35:02.237Z,20.75
2024-05-09T03:35:34.118Z,21.83
2024-05-09T03:36:09.111Z,25.42
2024-05-09T03:36:43.222Z,24.60
2024-05-09T03:37:14.914Z,25.48
2024-05-09T03:37:46.843Z,23.92
2024-05-09T03:38:18.701Z,25.20
2024-05-09T03:38:51.041Z,21.60
2024-05-09T03:39:22.786Z,25.30
2024-05-09T03:39:54.698Z,21.45
2024-05-09T03:40:29.172Z,22.30
2024-05-09T03:41:02.662Z,23.15
2024-05-09T03:41:34.564Z,26.10
2024-05-09T03:42:06.433Z,22.90
2024-05-09T03:42:41.676Z,24.98
2024-05-09T03:43:13.761Z,23.42
2024-05-09T03:43:45.557Z,22.05
2024-05-09T03:44:17.809Z,24.23
2024-05-09T03:44:49.785Z,22.60
2024-05-09T03:45:21.862Z,20.95
2024-05-09T03:45:53.642Z,22.75
2024-05-09T03:46:25.351Z,20.52
2024-05-09T03:46:57.107Z,21.65
2024-05-09T03:47:28.890Z,19.45
2024-05-09T03:48:00.979Z,19.60
2024-05-09T03:48:35.157Z,22.63
2024-05-09T03:49:08.073Z,21.63
2024-05-09T03:49:40.391Z,20.50
2024-05-09T03:50:18.488Z,21.15
2024-05-09T03:50:57.649Z,20.58
2024-05-09T03:51:30.070Z,20.42
2024-05-09T03:52:05.265Z,22.48
2024-05-09T03:52:37.027Z,20.98
2024-05-09T03:53:13.039Z,20.38
2024-05-09T03:53:44.952Z,20.15
2024-05-09T03:54:16.694Z,20.65
2024-05-09T03:54:48.508Z,23.50
2024-05-09T03:55:20.223Z,20.77
2024-05-09T03:55:52.018Z,17.52
2024-05-09T03:56:24.047Z,21.00
2024-05-09T03:56:55.801Z,22.80
2024-05-09T03:57:27.500Z,17.85
2024-05-09T03:57:59.439Z,19.48
2024-05-09T03:58:31.286Z,19.52
2024-05-09T03:59:03.126Z,19.45
2024-05-09T03:59:34.932Z,21.35
2024-05-09T04:00:12.210Z,24.25
2024-05-09T04:00:49.793Z,20.35
2024-05-09T04:01:21.693Z,22.20
2024-05-09T04:01:53.480Z,22.45
2024-05-09T04:02:25.370Z,21.75
2024-05-09T04:02:59.253Z,21.35
2024-05-09T04:03:31.565Z,23.08
2024-05-09T04:04:03.421Z,20.88
2024-05-09T04:04:35.254Z,22.38
2024-05-09T04:05:07.051Z,21.17
2024-05-09T04:05:43.878Z,20.85
2024-05-09T04:06:23.705Z,21.65
2024-05-09T04:06:55.408Z,19.92
2024-05-09T04:07:27.138Z,21.33
2024-05-09T04:07:58.969Z,22.48
2024-05-09T04:08:30.779Z,24.67
2024-05-09T04:09:02.555Z,20.27
2024-05-09T04:09:34.296Z,20.70
2024-05-09T04:10:09.018Z,23.35
2024-05-09T04:10:43.095Z,20.70
2024-05-09T04:11:14.953Z,20.90
2024-05-09T04:11:46.863Z,24.25
2024-05-09T04:12:18.829Z,22.90
2024-05-09T04:12:53.309Z,21.45
2024-05-09T04:13:25.018Z,21.08
2024-05-09T04:13:56.805Z,20.05
2024-05-09T04:14:28.779Z,22.33
2024-05-09T04:15:00.897Z,23.55
2024-05-09T04:15:33.121Z,20.50
2024-05-09T04:16:05.219Z,20.83
2024-05-09T04:16:36.916Z,20.13
2024-05-09T04:17:08.679Z,22.13
2024-05-09T04:17:40.739Z,42.78
2024-05-09T04:18:14.149Z,27.88
2024-05-09T04:18:46.204Z,57.80
2024-05-09T04:19:18.294Z,64.45
2024-05-09T04:19:50.122Z,79.88
2024-05-09T04:20:32.941Z,82.03
2024-05-09T04:21:10.137Z,67.30
2024-05-09T04:21:42.043Z,68.72
2024-05-09T04:22:13.858Z,160.75
2024-05-09T04:22:45.620Z,73.93
2024-05-09T04:23:17.412Z,93.40
2024-05-09T04:23:49.273Z,83.78
2024-05-09T04:24:21.165Z,87.53
2024-05-09T04:24:53.106Z,73.43
2024-05-09T04:25:24.809Z,68.30
2024-05-09T04:25:56.652Z,72.68
2024-05-09T04:26:28.473Z,47.08
2024-05-09T04:27:00.332Z,30.33
2024-05-09T04:27:32.124Z,58.08
2024-05-09T04:28:04.073Z,55.53
2024-05-09T04:28:35.812Z,66.28
2024-05-09T04:29:07.949Z,65.68
2024-05-09T04:29:40.802Z,61.08
2024-05-09T04:30:21.581Z,50.15
2024-05-09T04:31:02.026Z,39.83
2024-05-09T04:31:36.712Z,47.33
2024-05-09T04:32:08.743Z,32.83
2024-05-09T04:32:40.719Z,27.58
2024-05-09T04:33:15.092Z,27.77
2024-05-09T04:33:47.360Z,32.40
2024-05-09T04:34:19.346Z,35.40
2024-05-09T04:34:51.320Z,26.70
2024-05-09T04:35:23.241Z,31.42
2024-05-09T04:35:55.082Z,26.45
2024-05-09T04:36:26.823Z,25.58
2024-05-09T04:36:58.521Z,26.42
2024-05-09T04:37:30.588Z,30.23
2024-05-09T04:38:02.436Z,34.55
2024-05-09T04:38:34.428Z,36.22
2024-05-09T04:39:06.290Z,34.67
2024-05-09T04:39:38.022Z,47.60
2024-05-09T04:40:17.196Z,49.63
2024-05-09T04:40:55.465Z,50.42
2024-05-09T04:41:27.302Z,45.13
2024-05-09T04:41:59.029Z,26.40
2024-05-09T04:42:30.856Z,35.25
2024-05-09T04:43:06.897Z,32.90
2024-05-09T04:43:39.288Z,39.78
2024-05-09T04:44:11.010Z,49.10
2024-05-09T04:44:42.734Z,47.08
2024-05-09T04:45:14.531Z,37.55
2024-05-09T04:45:46.492Z,36.80
2024-05-09T04:46:18.281Z,31.30
2024-05-09T04:46:50.185Z,35.75
2024-05-09T04:47:22.064Z,38.88
2024-05-09T04:47:54.943Z,34.00
2024-05-09T04:48:27.141Z,32.50
2024-05-09T04:48:58.999Z,32.13
2024-05-09T04:49:30.878Z,28.35
2024-05-09T04:50:02.795Z,26.23
2024-05-09T04:50:38.182Z,31.42
2024-05-09T04:51:11.352Z,32.92
2024-05-09T04:51:43.153Z,29.95
2024-05-09T04:52:14.884Z,27.13
2024-05-09T04:52:46.671Z,29.85
2024-05-09T04:53:18.688Z,44.20
2024-05-09T04:53:50.534Z,31.38
2024-05-09T04:54:30.380Z,23.95
2024-05-09T04:55:07.785Z,32.95
2024-05-09T04:55:40.454Z,36.50
2024-05-09T04:56:12.528Z,31.90
2024-05-09T04:56:44.334Z,36.35
2024-05-09T04:57:16.182Z,34.60
2024-05-09T04:57:47.974Z,30.65
2024-05-09T04:58:20.653Z,30.90
2024-05-09T04:58:52.441Z,41.78
2024-05-09T04:59:24.336Z,31.52
2024-05-09T04:59:56.489Z,35.58
2024-05-09T05:00:35.800Z,40.50
2024-05-09T05:01:10.726Z,37.38
2024-05-09T05:01:42.450Z,39.03
2024-05-09T05:02:14.386Z,30.15
2024-05-09T05:02:46.323Z,27.92
2024-05-09T05:03:18.449Z,28.88
2024-05-09T05:03:50.492Z,30.83
2024-05-09T05:04:22.491Z,37.58
2024-05-09T05:04:54.534Z,24.80
2024-05-09T05:05:26.528Z,28.48
2024-05-09T05:05:58.398Z,32.47
2024-05-09T05:06:30.318Z,19.25
2024-05-09T05:07:03.005Z,23.42
2024-05-09T05:07:34.914Z,30.45
2024-05-09T05:08:15.052Z,26.88
2024-05-09T05:08:47.147Z,17.63
2024-05-09T05:09:18.987Z,16.83
2024-05-09T05:09:50.886Z,17.05
2024-05-09T05:10:29.535Z,33.10
2024-05-09T05:11:07.176Z,18.40
2024-05-09T05:11:39.194Z,22.63
2024-05-09T05:12:31.122Z,26.55
2024-05-09T05:13:18.087Z,23.98
2024-05-09T05:13:50.773Z,15.57
2024-05-09T05:14:22.545Z,16.80
2024-05-09T05:14:54.321Z,14.93
2024-05-09T05:15:26.028Z,15.38
2024-05-09T05:15:58.480Z,15.18
2024-05-09T05:16:30.534Z,24.65
2024-05-09T05:17:02.306Z,15.20
2024-05-09T05:17:34.416Z,15.13
2024-05-09T05:18:06.577Z,15.10
2024-05-09T05:18:38.824Z,14.55
2024-05-09T05:19:13.516Z,14.95
2024-05-09T05:19:47.052Z,15.10
2024-05-09T05:20:27.352Z,17.35
2024-05-09T05:21:05.039Z,15.48
2024-05-09T05:21:36.841Z,18.00
2024-05-09T05:22:08.669Z,16.50
2024-05-09T05:22:43.171Z,26.52
2024-05-09T05:23:16.901Z,15.93
2024-05-09T05:23:48.980Z,27.50
2024-05-09T05:24:20.711Z,25.70
2024-05-09T05:24:52.455Z,21.58
2024-05-09T05:25:24.208Z,14.98
2024-05-09T05:25:56.109Z,14.50
2024-05-09T05:26:27.976Z,15.50
2024-05-09T05:26:59.735Z,15.90
2024-05-09T05:27:31.511Z,18.08
2024-05-09T05:28:03.538Z,62.40
2024-05-09T05:28:35.235Z,16.80
2024-05-09T05:29:08.291Z,21.70
2024-05-09T05:29:40.035Z,15.82
2024-05-09T05:30:17.869Z,14.18
2024-05-09T05:30:53.309Z,18.20
2024-05-09T05:31:25.106Z,16.00
2024-05-09T05:31:57.154Z,23.83
2024-05-09T05:32:29.178Z,39.80
2024-05-09T05:33:01.366Z,16.05
2024-05-09T05:33:33.570Z,15.82
2024-05-09T05:34:05.373Z,16.88
2024-05-09T05:34:37.163Z,17.52
2024-05-09T05:35:09.032Z,14.98
2024-05-09T05:35:41.683Z,15.48
2024-05-09T05:36:13.449Z,18.85
2024-05-09T05:36:45.204Z,15.80
2024-05-09T05:37:16.975Z,32.58
2024-05-09T05:37:48.728Z,19.77
2024-05-09T05:38:23.868Z,14.82
2024-05-09T05:38:58.058Z,15.45
2024-05-09T05:39:29.943Z,14.73
2024-05-09T05:40:01.782Z,15.05
2024-05-09T05:40:37.096Z,25.60
2024-05-09T05:41:10.317Z,17.92
2024-05-09T05:41:42.144Z,15.50
2024-05-09T05:42:13.893Z,15.98
2024-05-09T05:42:45.655Z,16.10
2024-05-09T05:43:18.323Z,18.23
2024-05-09T05:43:50.162Z,14.70
2024-05-09T05:44:22.041Z,19.63
2024-05-09T05:44:53.953Z,15.85
2024-05-09T05:45:26.019Z,15.93
2024-05-09T05:45:58.353Z,15.93
2024-05-09T05:46:30.210Z,15.00
2024-05-09T05:47:02.014Z,15.57
2024-05-09T05:47:33.861Z,15.15
2024-05-09T05:48:09.198Z,21.20
2024-05-09T05:48:41.215Z,16.40
2024-05-09T05:49:13.100Z,14.40
2024-05-09T05:49:44.911Z,13.90
2024-05-09T05:50:24.699Z,22.65
2024-05-09T05:51:05.809Z,14.05
2024-05-09T05:51:37.696Z,15.00
2024-05-09T05:52:11.214Z,26.23
2024-05-09T05:52:43.545Z,16.80
2024-05-09T05:53:15.765Z,21.38
2024-05-09T05:53:47.774Z,15.23
2024-05-09T05:54:19.548Z,22.30
2024-05-09T05:54:52.069Z,34.40
2024-05-09T05:55:23.794Z,28.23
2024-05-09T05:55:55.720Z,17.45
2024-05-09T05:56:27.655Z,14.57
2024-05-09T05:56:59.502Z,15.15
2024-05-09T05:57:31.330Z,17.83
2024-05-09T05:58:03.282Z,14.80
2024-05-09T05:58:34.943Z,16.98
2024-05-09T05:59:06.711Z,20.25
2024-05-09T05:59:38.572Z,15.98
2024-05-09T06:00:17.953Z,21.92
2024-05-09T06:00:53.778Z,14.77
2024-05-09T06:01:25.664Z,15.60
2024-05-09T06:01:57.530Z,30.95
2024-05-09T06:02:29.440Z,69.57
2024-05-09T06:03:01.296Z,24.65
2024-05-09T06:03:33.312Z,51.08
2024-05-09T06:04:05.190Z,34.83
2024-05-09T06:04:36.994Z,25.50
2024-05-09T06:05:09.826Z,32.35
2024-05-09T06:05:46.177Z,16.42
2024-05-09T06:06:18.066Z,23.45
2024-05-09T06:06:49.900Z,17.50
2024-05-09T06:07:21.620Z,32.13
2024-05-09T06:07:53.407Z,24.17
2024-05-09T06:08:27.095Z,26.98
2024-05-09T06:09:00.539Z,17.70
2024-05-09T06:09:32.344Z,20.75
2024-05-09T06:10:09.225Z,17.38
2024-05-09T06:10:43.191Z,17.55
2024-05-09T06:11:15.043Z,17.83
2024-05-09T06:11:47.118Z,16.90
2024-05-09T06:12:20.119Z,18.90
2024-05-09T06:12:51.958Z,17.92
2024-05-09T06:13:23.734Z,22.02
2024-05-09T06:13:55.494Z,21.92
2024-05-09T06:14:27.300Z,17.95
2024-05-09T06:15:00.553Z,17.48
2024-05-09T06:15:32.291Z,16.63
2024-05-09T06:16:05.067Z,17.88
2024-05-09T06:16:36.830Z,17.63
2024-05-09T06:17:08.674Z,21.25
2024-05-09T06:17:40.548Z,70.47
2024-05-09T06:18:14.184Z,19.15
2024-05-09T06:18:47.017Z,17.27
2024-05-09T06:19:19.687Z,17.50
2024-05-09T06:19:51.715Z,20.83
2024-05-09T06:20:31.046Z,17.77
2024-05-09T06:21:06.842Z,17.55
2024-05-09T06:21:38.664Z,18.80
2024-05-09T06:22:11.156Z,17.63
2024-05-09T06:22:43.002Z,17.42
2024-05-09T06:23:15.182Z,19.58
2024-05-09T06:23:47.990Z,24.40
2024-05-09T06:24:19.930Z,16.40
2024-05-09T06:24:51.750Z,15.43
2024-05-09T06:25:23.514Z,17.92
2024-05-09T06:25:55.393Z,27.83
2024-05-09T06:26:27.277Z,17.40
2024-05-09T06:26:59.355Z,23.77
2024-05-09T06:27:31.118Z,23.48
2024-05-09T06:28:03.221Z,18.02
2024-05-09T06:28:35.595Z,18.33
2024-05-09T06:29:07.383Z,27.98
2024-05-09T06:29:39.718Z,18.40
2024-05-09T06:30:24.838Z,18.88
2024-05-09T06:31:01.781Z,69.78
2024-05-09T06:31:33.727Z,22.50
2024-05-09T06:32:07.113Z,24.30
2024-05-09T06:32:38.983Z,23.52
2024-05-09T06:33:13.377Z,17.70
2024-05-09T06:33:47.364Z,22.08
2024-05-09T06:34:19.560Z,23.58
2024-05-09T06:34:51.472Z,21.33
2024-05-09T06:35:23.360Z,17.92
2024-05-09T06:35:59.325Z,24.63
2024-05-09T06:36:31.035Z,17.08
2024-05-09T06:37:02.816Z,20.48
2024-05-09T06:37:34.591Z,63.30
2024-05-09T06:38:09.016Z,18.75
2024-05-09T06:38:41.192Z,18.10
2024-05-09T06:39:12.925Z,18.77
2024-05-09T06:39:46.120Z,18.55
2024-05-09T06:40:25.354Z,21.67
2024-05-09T06:41:01.552Z,23.45
2024-05-09T06:41:33.471Z,19.20
2024-05-09T06:42:05.328Z,25.60
2024-05-09T06:42:37.068Z,18.67
2024-05-09T06:43:17.679Z,21.25
2024-05-09T06:43:51.187Z,18.92
2024-05-09T06:44:23.162Z,20.48
2024-05-09T06:44:55.064Z,18.00
2024-05-09T06:45:26.757Z,27.08
2024-05-09T06:45:58.504Z,28.73
2024-05-09T06:46:30.295Z,20.17
2024-05-09T06:47:02.162Z,41.10
2024-05-09T06:47:34.215Z,23.67
2024-05-09T06:48:06.937Z,19.40
2024-05-09T06:48:39.112Z,20.17
2024-05-09T06:49:12.435Z,20.73
2024-05-09T06:49:44.316Z,20.95
2024-05-09T06:50:23.408Z,46.90
2024-05-09T06:50:59.018Z,31.65
2024-05-09T06:51:30.757Z,30.02
2024-05-09T06:52:02.500Z,20.05
2024-05-09T06:52:34.204Z,32.25
2024-05-09T06:53:06.081Z,27.05
2024-05-09T06:53:39.599Z,21.98
2024-05-09T06:54:12.599Z,19.20
2024-05-09T06:54:44.290Z,30.83
2024-05-09T06:55:16.147Z,21.55
2024-05-09T06:55:47.866Z,20.17
2024-05-09T06:56:20.017Z,21.55
2024-05-09T06:56:51.739Z,21.65
2024-05-09T06:57:23.657Z,26.17
2024-05-09T06:57:55.416Z,23.42
2024-05-09T06:58:27.187Z,22.95
2024-05-09T06:58:58.901Z,21.52
2024-05-09T06:59:30.833Z,21.45
2024-05-09T07:00:02.957Z,28.48
2024-05-09T07:00:39.398Z,22.80
2024-05-09T07:01:13.044Z,20.23
2024-05-09T07:01:45.358Z,21.90
2024-05-09T07:02:17.210Z,20.98
2024-05-09T07:02:49.081Z,20.38